Renee Davison — WDF9429 — position and weather

sailwx.info

Track history (hours):
 
Tides and Currents Weather Stations Pressure Air Temp Water Temp Dewpoint Dewpoint Depression Visibility Wind Speed Wind Dir Waves Ship Positions

Renee Davison

Owner: Genesis Marine, LLC, Houston, TX. More information available from US FCC via Universal Licensing System and Coast Guard Vessel Documentation Center.

Last reported at 2018-Jan-31 14:25 UTC. Time now 2018-Feb-22 04:39 UTC.
Position N 29°57' W 090°23'.
Warning: this ship's position is 21 days out of date.

Length 27 m; draft 3.1 m.

Type: Towing. MMSI: 367505070.

Date/timePositionNaut miles runAvg speedWind from/ knotsBaromVisibWave heightAir tempDewpointWater temp
2018-Jan-31 14:25N 29°57' W 090°23'  
2018-Jan-26 03:26N 29°57' W 090°23'1 1.9
2018-Jan-26 03:00N 29°56' W 090°22'  
2018-Jan-23 18:35N 29°34' W 090°33'2 4.5
2018-Jan-23 18:08N 29°35' W 090°35'1 4.1
2018-Jan-23 17:47N 29°35' W 090°37'1 4.0
2018-Jan-23 17:30N 29°35' W 090°38'2 4.5
2018-Jan-23 17:01N 29°36' W 090°40'1 1.1
2018-Jan-23 16:30N 29°36' W 090°41'1 2.6
2018-Jan-23 16:00N 29°36' W 090°43'2 4.1
2018-Jan-23 15:30N 29°34' W 090°43'1 2.2
2018-Jan-23 15:00N 29°34' W 090°44'1 1.1
2018-Jan-23 14:31N 29°34' W 090°45'0 0.1
2018-Jan-23 14:01N 29°34' W 090°45'0 0.5
2018-Jan-23 13:30N 29°33' W 090°45'0 0.5
2018-Jan-23 13:01N 29°33' W 090°45'1 2.2
2018-Jan-23 12:31N 29°32' W 090°46'2 4.8
2018-Jan-23 12:00N 29°32' W 090°48'3 5.7
2018-Jan-23 11:31N 29°32' W 090°52'3 5.6
2018-Jan-23 11:00N 29°33' W 090°55'3 5.5
2018-Jan-23 10:25N 29°35' W 090°58'58 4.3
2018-Jan-22 21:10N 29°49' W 092°02'1 4.6
2018-Jan-22 21:00N 29°49' W 092°03'3 4.6
2018-Jan-22 20:19N 29°48' W 092°06'1 4.6
2018-Jan-22 20:00N 29°47' W 092°08'2 4.7
2018-Jan-22 19:31N 29°47' W 092°10'2 4.2
2018-Jan-22 19:01N 29°47' W 092°13'3 5.1
2018-Jan-22 18:30N 29°48' W 092°15'2 4.8
2018-Jan-22 18:01N 29°50' W 092°18'2 3.9
2018-Jan-22 17:30N 29°50' W 092°20'39 2.3
2018-Jan-22 00:08N 29°56' W 093°05'1 4.1
2018-Jan-21 23:57N 29°56' W 093°05'2 4.2
2018-Jan-21 23:30N 29°56' W 093°08'2 4.2
2018-Jan-21 23:00N 29°56' W 093°10'2 4.5
2018-Jan-21 22:30N 29°58' W 093°12'2 4.4
2018-Jan-21 22:00N 29°60' W 093°13'2 3.8
2018-Jan-21 21:30N 30°02' W 093°14'0 0.7
2018-Jan-21 21:01N 30°02' W 093°15'0 0.5
2018-Jan-21 20:31N 30°02' W 093°15'2 3.4
2018-Jan-21 20:01N 30°03' W 093°16'2 3.9
2018-Jan-21 19:31N 30°05' W 093°17'1 2.8
2018-Jan-21 19:01N 30°06' W 093°18'2 4.4
2018-Jan-21 18:31N 30°05' W 093°20'2 3.6
2018-Jan-21 18:00N 30°04' W 093°22'2 3.8
2018-Jan-21 17:31N 30°04' W 093°24'0 0.2
2018-Jan-21 17:00N 30°04' W 093°24'0 0.0
2018-Jan-21 16:30N 30°04' W 093°24'0 0.0
2018-Jan-21 15:59N 30°04' W 093°24'0 0.0
2018-Jan-21 15:31N 30°04' W 093°24'0 0.0
2018-Jan-21 15:01N 30°04' W 093°24'0 0.0
2018-Jan-21 14:30N 30°04' W 093°24'  
Track history (hours):
 
Tides and Currents Weather Stations Pressure Air Temp Water Temp Dewpoint Dewpoint Depression Visibility Wind Speed Wind Dir Waves Ship Positions

Renee Davison

Owner: Genesis Marine, LLC, Houston, TX. More information available from US FCC via Universal Licensing System and Coast Guard Vessel Documentation Center.

Last reported at 2018-Jan-31 14:25 UTC. Time now 2018-Feb-22 04:39 UTC.
Position N 29°57' W 090°23'.
Warning: this ship's position is 21 days out of date.

Length 27 m; draft 3.1 m.

Type: Towing. MMSI: 367505070.

Date/timePositionNaut miles runAvg speedWind from/ knotsBaromVisibWave heightAir tempDewpointWater temp
2018-Jan-31 14:25N 29°57' W 090°23'  
2018-Jan-26 03:26N 29°57' W 090°23'1 1.9
2018-Jan-26 03:00N 29°56' W 090°22'  
2018-Jan-23 18:35N 29°34' W 090°33'2 4.5
2018-Jan-23 18:08N 29°35' W 090°35'1 4.1
2018-Jan-23 17:47N 29°35' W 090°37'1 4.0
2018-Jan-23 17:30N 29°35' W 090°38'2 4.5
2018-Jan-23 17:01N 29°36' W 090°40'1 1.1
2018-Jan-23 16:30N 29°36' W 090°41'1 2.6
2018-Jan-23 16:00N 29°36' W 090°43'2 4.1
2018-Jan-23 15:30N 29°34' W 090°43'1 2.2
2018-Jan-23 15:00N 29°34' W 090°44'1 1.1
2018-Jan-23 14:31N 29°34' W 090°45'0 0.1
2018-Jan-23 14:01N 29°34' W 090°45'0 0.5
2018-Jan-23 13:30N 29°33' W 090°45'0 0.5
2018-Jan-23 13:01N 29°33' W 090°45'1 2.2
2018-Jan-23 12:31N 29°32' W 090°46'2 4.8
2018-Jan-23 12:00N 29°32' W 090°48'3 5.7
2018-Jan-23 11:31N 29°32' W 090°52'3 5.6
2018-Jan-23 11:00N 29°33' W 090°55'3 5.5
2018-Jan-23 10:25N 29°35' W 090°58'58 4.3
2018-Jan-22 21:10N 29°49' W 092°02'1 4.6
2018-Jan-22 21:00N 29°49' W 092°03'3 4.6
2018-Jan-22 20:19N 29°48' W 092°06'1 4.6
2018-Jan-22 20:00N 29°47' W 092°08'2 4.7
2018-Jan-22 19:31N 29°47' W 092°10'2 4.2
2018-Jan-22 19:01N 29°47' W 092°13'3 5.1
2018-Jan-22 18:30N 29°48' W 092°15'2 4.8
2018-Jan-22 18:01N 29°50' W 092°18'2 3.9
2018-Jan-22 17:30N 29°50' W 092°20'39 2.3
2018-Jan-22 00:08N 29°56' W 093°05'1 4.1
2018-Jan-21 23:57N 29°56' W 093°05'2 4.2
2018-Jan-21 23:30N 29°56' W 093°08'2 4.2
2018-Jan-21 23:00N 29°56' W 093°10'2 4.5
2018-Jan-21 22:30N 29°58' W 093°12'2 4.4
2018-Jan-21 22:00N 29°60' W 093°13'2 3.8
2018-Jan-21 21:30N 30°02' W 093°14'0 0.7
2018-Jan-21 21:01N 30°02' W 093°15'0 0.5
2018-Jan-21 20:31N 30°02' W 093°15'2 3.4
2018-Jan-21 20:01N 30°03' W 093°16'2 3.9
2018-Jan-21 19:31N 30°05' W 093°17'1 2.8
2018-Jan-21 19:01N 30°06' W 093°18'2 4.4
2018-Jan-21 18:31N 30°05' W 093°20'2 3.6
2018-Jan-21 18:00N 30°04' W 093°22'2 3.8
2018-Jan-21 17:31N 30°04' W 093°24'0 0.2
2018-Jan-21 17:00N 30°04' W 093°24'0 0.0
2018-Jan-21 16:30N 30°04' W 093°24'0 0.0
2018-Jan-21 15:59N 30°04' W 093°24'0 0.0
2018-Jan-21 15:31N 30°04' W 093°24'0 0.0
2018-Jan-21 15:01N 30°04' W 093°24'0 0.0
2018-Jan-21 14:30N 30°04' W 093°24'  

Dump ship's entire track history